Pedro Osorio, Brazil
Current Conditions -  °F | °C
As of 1:00 AM on Thursday 25 Dec 2014 (Local Time) from SBPK Reporting Station
Few Clouds Few Clouds  
Wind Chill: 68°   Ceiling: Unl
Heat Index: 68°   Visibility: 6mi
Dew Point: 61°   Wind: 12mph
Humidity: 78%   Direction: 60°ENE
Pressure: 30.06"   Gusts: NA
Location:  31.86°S, 52.82°W
Report Text: SBPK 250300Z 06010KT 9999 FEW030 20/16 Q1018
Loading
Personal Weather Stations






























Interactive Weather Map New forecast layout! Learn more

10-Day Weather Forecast

Advertisements
Track Severe Weather on mobile